createdAt,value
2022-11-10T00:00:23.411Z,1012.51
2022-11-10T00:01:23.393Z,1012.53
2022-11-10T00:02:23.377Z,1012.49
2022-11-10T00:03:23.656Z,1012.56
2022-11-10T00:04:23.400Z,1012.52
2022-11-10T00:05:23.356Z,1012.58
2022-11-10T00:06:23.328Z,1012.57
2022-11-10T00:07:23.315Z,1012.55
2022-11-10T00:08:23.302Z,1012.56
2022-11-10T00:09:23.291Z,1012.60
2022-11-10T00:10:23.327Z,1012.65
2022-11-10T00:11:23.293Z,1012.64
2022-11-10T00:12:23.260Z,1012.66
2022-11-10T00:13:23.625Z,1012.63
2022-11-10T00:14:23.235Z,1012.67
2022-11-10T00:15:23.228Z,1012.71
2022-11-10T00:16:23.227Z,1012.76
2022-11-10T00:17:23.203Z,1012.76
2022-11-10T00:18:23.206Z,1012.76
2022-11-10T00:19:23.181Z,1012.75
2022-11-10T00:20:23.179Z,1012.77
2022-11-10T00:21:23.185Z,1012.76
2022-11-10T00:22:26.011Z,1012.76
2022-11-10T00:23:23.504Z,1012.76
2022-11-10T00:24:23.127Z,1012.80
2022-11-10T00:25:23.127Z,1012.79
2022-11-10T00:26:23.111Z,1012.82
2022-11-10T00:27:23.118Z,1012.86
2022-11-10T00:28:23.085Z,1012.87
2022-11-10T00:29:23.069Z,1012.87
2022-11-10T00:30:23.056Z,1012.87
2022-11-10T00:31:23.068Z,1012.87
2022-11-10T00:32:23.031Z,1012.88
2022-11-10T00:33:23.364Z,1012.86
2022-11-10T00:34:23.011Z,1012.88
2022-11-10T00:35:23.019Z,1012.88
2022-11-10T00:36:23.020Z,1012.88
2022-11-10T00:37:22.985Z,1012.93
2022-11-10T00:38:22.972Z,1012.95
2022-11-10T00:39:22.957Z,1012.93
2022-11-10T00:40:22.946Z,1012.90
2022-11-10T00:41:22.936Z,1012.88
2022-11-10T00:42:22.935Z,1012.89
2022-11-10T00:43:26.583Z,1012.88
2022-11-10T00:44:22.908Z,1012.88
2022-11-10T00:45:22.894Z,1012.90
2022-11-10T00:46:22.888Z,1012.91
2022-11-10T00:47:22.882Z,1012.92
2022-11-10T00:48:22.862Z,1012.92
2022-11-10T00:49:22.849Z,1012.92
2022-11-10T00:50:22.839Z,1012.93
2022-11-10T00:51:22.829Z,1012.95
2022-11-10T00:52:22.832Z,1012.97
2022-11-10T00:53:23.278Z,1012.98
2022-11-10T00:54:22.785Z,1012.97
2022-11-10T00:55:22.777Z,1012.98
2022-11-10T00:56:22.765Z,1012.98
2022-11-10T00:57:22.767Z,1012.97
2022-11-10T00:58:22.749Z,1012.97
2022-11-10T00:59:22.758Z,1012.95
2022-11-10T01:00:22.736Z,1012.97
2022-11-10T01:01:22.726Z,1012.97
2022-11-10T01:02:22.718Z,1013.00
2022-11-10T01:03:23.234Z,1013.00
2022-11-10T01:04:22.674Z,1013.05
2022-11-10T01:05:22.671Z,1013.07
2022-11-10T01:06:22.659Z,1013.09
2022-11-10T01:07:22.661Z,1013.08
2022-11-10T01:08:22.631Z,1013.12
2022-11-10T01:09:22.632Z,1013.15
2022-11-10T01:10:22.607Z,1013.14
2022-11-10T01:11:22.604Z,1013.17
2022-11-10T01:12:22.608Z,1013.17
2022-11-10T01:13:22.895Z,1013.20
2022-11-10T01:14:22.566Z,1013.25
2022-11-10T01:15:27.311Z,1013.22
2022-11-10T01:16:23.540Z,1013.20
2022-11-10T01:17:22.551Z,1013.23
2022-11-10T01:18:22.517Z,1013.25
2022-11-10T01:19:22.506Z,1013.20
2022-11-10T01:20:22.501Z,1013.20
2022-11-10T01:21:22.481Z,1013.22
2022-11-10T01:22:22.499Z,1013.17
2022-11-10T01:23:22.933Z,1013.19
2022-11-10T01:24:22.450Z,1013.23
2022-11-10T01:25:22.438Z,1013.22
2022-11-10T01:26:22.426Z,1013.27
2022-11-10T01:27:22.431Z,1013.27
2022-11-10T01:28:22.402Z,1013.30
2022-11-10T01:29:22.397Z,1013.26
2022-11-10T01:30:22.388Z,1013.28
2022-11-10T01:31:22.395Z,1013.27
2022-11-10T01:32:22.379Z,1013.27
2022-11-10T01:33:22.615Z,1013.26
2022-11-10T01:34:22.342Z,1013.30
2022-11-10T01:35:22.332Z,1013.32
2022-11-10T01:36:22.320Z,1013.27
2022-11-10T01:37:22.317Z,1013.32
2022-11-10T01:38:22.298Z,1013.31
2022-11-10T01:39:22.286Z,1013.32
2022-11-10T01:40:22.386Z,1013.40
2022-11-10T01:41:22.264Z,1013.42
2022-11-10T01:42:22.276Z,1013.42
2022-11-10T01:43:22.673Z,1013.41
2022-11-10T01:44:22.235Z,1013.46
2022-11-10T01:45:22.220Z,1013.46
2022-11-10T01:46:22.198Z,1013.47
2022-11-10T01:47:22.231Z,1013.47
2022-11-10T01:48:22.186Z,1013.46
2022-11-10T01:49:22.203Z,1013.47
2022-11-10T01:50:22.159Z,1013.46
2022-11-10T01:51:22.147Z,1013.49
2022-11-10T01:52:22.154Z,1013.48
2022-11-10T01:53:22.440Z,1013.48
2022-11-10T01:54:22.116Z,1013.49
2022-11-10T01:55:22.099Z,1013.48
2022-11-10T01:56:22.094Z,1013.51
2022-11-10T01:57:22.107Z,1013.46
2022-11-10T01:58:22.067Z,1013.43
2022-11-10T01:59:22.063Z,1013.43
2022-11-10T02:00:22.050Z,1013.49
2022-11-10T02:01:22.082Z,1013.45
2022-11-10T02:02:22.046Z,1013.47
2022-11-10T02:03:22.481Z,1013.47
2022-11-10T02:04:21.998Z,1013.48
2022-11-10T02:05:21.993Z,1013.52
2022-11-10T02:06:21.974Z,1013.53
2022-11-10T02:07:21.982Z,1013.57
2022-11-10T02:08:21.960Z,1013.58
2022-11-10T02:09:21.949Z,1013.61
2022-11-10T02:10:21.932Z,1013.63
2022-11-10T02:11:21.924Z,1013.63
2022-11-10T02:12:21.923Z,1013.60
2022-11-10T02:13:22.222Z,1013.64
2022-11-10T02:14:21.892Z,1013.64
2022-11-10T02:15:21.881Z,1013.64
2022-11-10T02:16:21.869Z,1013.67
2022-11-10T02:17:21.963Z,1013.65
2022-11-10T02:18:21.840Z,1013.70
2022-11-10T02:19:21.858Z,1013.70
2022-11-10T02:20:21.825Z,1013.74
2022-11-10T02:21:21.812Z,1013.73
2022-11-10T02:22:21.816Z,1013.76
2022-11-10T02:23:22.105Z,1013.81
2022-11-10T02:24:21.777Z,1013.85
2022-11-10T02:25:21.758Z,1013.82
2022-11-10T02:26:21.755Z,1013.80
2022-11-10T02:27:21.758Z,1013.74
2022-11-10T02:28:21.735Z,1013.76
2022-11-10T02:29:21.731Z,1013.79
2022-11-10T02:30:26.508Z,1013.76
2022-11-10T02:31:22.698Z,1013.81
2022-11-10T02:32:21.704Z,1013.75
2022-11-10T02:33:22.073Z,1013.83
2022-11-10T02:34:21.675Z,1013.82
2022-11-10T02:35:21.669Z,1013.88
2022-11-10T02:36:21.634Z,1013.90
2022-11-10T02:37:21.633Z,1013.93
2022-11-10T02:38:21.633Z,1013.97
2022-11-10T02:39:21.603Z,1013.95
2022-11-10T02:40:21.598Z,1013.97
2022-11-10T02:41:21.581Z,1013.96
2022-11-10T02:42:21.568Z,1014.03
2022-11-10T02:43:21.942Z,1014.02
2022-11-10T02:44:21.555Z,1014.02
2022-11-10T02:45:21.544Z,1014.04
2022-11-10T02:46:21.523Z,1014.04
2022-11-10T02:47:21.518Z,1014.03
2022-11-10T02:48:21.536Z,1014.00
2022-11-10T02:49:21.493Z,1014.02
2022-11-10T02:50:21.485Z,1014.03
2022-11-10T02:51:21.497Z,1014.04
2022-11-10T02:52:21.459Z,1013.98
2022-11-10T02:53:21.855Z,1014.03
2022-11-10T02:54:21.438Z,1014.01
2022-11-10T02:55:21.431Z,1014.02
2022-11-10T02:56:21.411Z,1014.00
2022-11-10T02:57:21.408Z,1013.99
2022-11-10T02:58:21.402Z,1013.99
2022-11-10T02:59:21.385Z,1014.01
2022-11-10T03:00:21.374Z,1014.03
2022-11-10T03:01:21.417Z,1014.03
2022-11-10T03:02:21.354Z,1014.05
2022-11-10T03:03:21.773Z,1014.04
2022-11-10T03:04:21.321Z,1014.01
2022-11-10T03:05:21.326Z,1014.00
2022-11-10T03:06:21.308Z,1014.04
2022-11-10T03:07:21.308Z,1014.07
2022-11-10T03:08:21.315Z,1014.09
2022-11-10T03:09:21.270Z,1014.10
2022-11-10T03:10:21.253Z,1014.12
2022-11-10T03:11:21.276Z,1014.15
2022-11-10T03:12:21.239Z,1014.22
2022-11-10T03:13:21.568Z,1014.21
2022-11-10T03:14:21.241Z,1014.23
2022-11-10T03:15:21.194Z,1014.29
2022-11-10T03:16:21.184Z,1014.35
2022-11-10T03:17:21.191Z,1014.36
2022-11-10T03:18:21.189Z,1014.39
2022-11-10T03:19:21.165Z,1014.42
2022-11-10T03:20:21.149Z,1014.41
2022-11-10T03:21:21.129Z,1014.44
2022-11-10T03:22:21.125Z,1014.44
2022-11-10T03:23:21.614Z,1014.45
2022-11-10T03:24:21.117Z,1014.43
2022-11-10T03:25:21.102Z,1014.43
2022-11-10T03:26:21.082Z,1014.45
2022-11-10T03:27:21.067Z,1014.42
2022-11-10T03:28:21.054Z,1014.42
2022-11-10T03:29:21.050Z,1014.41
2022-11-10T03:30:21.034Z,1014.44
2022-11-10T03:31:21.016Z,1014.49
2022-11-10T03:32:21.002Z,1014.51
2022-11-10T03:33:21.437Z,1014.57
2022-11-10T03:34:21.016Z,1014.51
2022-11-10T03:35:20.972Z,1014.52
2022-11-10T03:36:20.986Z,1014.48
2022-11-10T03:37:20.947Z,1014.47
2022-11-10T03:38:20.948Z,1014.49
2022-11-10T03:39:20.945Z,1014.47
2022-11-10T03:40:20.933Z,1014.49
2022-11-10T03:41:21.149Z,1014.49
2022-11-10T03:42:20.901Z,1014.48
2022-11-10T03:43:21.251Z,1014.49
2022-11-10T03:44:20.870Z,1014.46
2022-11-10T03:45:20.884Z,1014.43
2022-11-10T03:46:20.854Z,1014.42
2022-11-10T03:47:20.852Z,1014.45
2022-11-10T03:48:20.846Z,1014.48
2022-11-10T03:49:20.821Z,1014.49
2022-11-10T03:50:20.826Z,1014.53
2022-11-10T03:51:20.800Z,1014.56
2022-11-10T03:52:20.785Z,1014.63
2022-11-10T03:53:21.081Z,1014.59
2022-11-10T03:54:20.762Z,1014.66
2022-11-10T03:55:20.781Z,1014.68
2022-11-10T03:56:20.742Z,1014.70
2022-11-10T03:57:20.723Z,1014.67
2022-11-10T03:58:20.720Z,1014.67
2022-11-10T03:59:20.705Z,1014.66
2022-11-10T04:00:20.707Z,1014.62
2022-11-10T04:01:20.738Z,1014.59
2022-11-10T04:02:20.674Z,1014.66
2022-11-10T04:03:21.163Z,1014.66
2022-11-10T04:04:20.657Z,1014.71
2022-11-10T04:05:20.669Z,1014.75
2022-11-10T04:06:20.628Z,1014.83
2022-11-10T04:07:20.613Z,1014.84
2022-11-10T04:08:20.618Z,1014.86
2022-11-10T04:09:20.590Z,1014.87
2022-11-10T04:10:20.597Z,1014.87
2022-11-10T04:11:20.594Z,1014.89
2022-11-10T04:12:24.591Z,1014.88
2022-11-10T04:13:20.845Z,1014.87
2022-11-10T04:14:20.538Z,1014.89
2022-11-10T04:15:20.531Z,1014.91
2022-11-10T04:16:20.517Z,1014.94
2022-11-10T04:17:20.508Z,1014.95
2022-11-10T04:18:20.493Z,1014.93
2022-11-10T04:19:20.477Z,1014.95
2022-11-10T04:20:20.479Z,1014.91
2022-11-10T04:21:20.459Z,1014.94
2022-11-10T04:22:20.448Z,1014.98
2022-11-10T04:23:20.888Z,1014.98
2022-11-10T04:24:20.423Z,1014.99
2022-11-10T04:25:20.431Z,1014.98
2022-11-10T04:26:20.405Z,1015.10
2022-11-10T04:27:20.407Z,1015.09
2022-11-10T04:28:20.385Z,1015.07
2022-11-10T04:29:20.363Z,1015.08
2022-11-10T04:30:20.382Z,1015.09
2022-11-10T04:31:20.345Z,1015.08
2022-11-10T04:32:20.339Z,1015.09
2022-11-10T04:33:20.691Z,1015.05
2022-11-10T04:34:20.314Z,1015.11
2022-11-10T04:35:20.313Z,1015.15
2022-11-10T04:36:20.291Z,1015.20
2022-11-10T04:37:20.272Z,1015.21
2022-11-10T04:38:20.270Z,1015.22
2022-11-10T04:39:20.253Z,1015.26
2022-11-10T04:40:20.260Z,1015.30
2022-11-10T04:41:20.236Z,1015.31
2022-11-10T04:42:20.218Z,1015.36
2022-11-10T04:43:20.695Z,1015.38
2022-11-10T04:44:20.209Z,1015.40
2022-11-10T04:45:20.197Z,1015.40
2022-11-10T04:46:20.180Z,1015.41
2022-11-10T04:47:20.168Z,1015.41
2022-11-10T04:48:20.155Z,1015.47
2022-11-10T04:49:20.150Z,1015.50
2022-11-10T04:50:20.152Z,1015.47
2022-11-10T04:51:20.191Z,1015.48
2022-11-10T04:52:20.106Z,1015.47
2022-11-10T04:53:20.458Z,1015.50
2022-11-10T04:54:20.097Z,1015.48
2022-11-10T04:55:20.089Z,1015.50
2022-11-10T04:56:20.068Z,1015.49
2022-11-10T04:57:20.050Z,1015.46
2022-11-10T04:58:20.045Z,1015.50
2022-11-10T04:59:20.047Z,1015.52
2022-11-10T05:00:20.048Z,1015.54
2022-11-10T05:01:20.066Z,1015.58
2022-11-10T05:02:19.995Z,1015.59
2022-11-10T05:03:20.471Z,1015.54
2022-11-10T05:04:19.980Z,1015.61
2022-11-10T05:05:19.976Z,1015.62
2022-11-10T05:06:19.955Z,1015.64
2022-11-10T05:07:19.941Z,1015.64
2022-11-10T05:08:19.928Z,1015.68
2022-11-10T05:09:19.942Z,1015.68
2022-11-10T05:10:19.940Z,1015.69
2022-11-10T05:11:19.924Z,1015.73
2022-11-10T05:12:22.480Z,1015.73
2022-11-10T05:13:20.179Z,1015.73
2022-11-10T05:14:19.863Z,1015.75
2022-11-10T05:15:19.893Z,1015.79
2022-11-10T05:16:19.838Z,1015.81
2022-11-10T05:17:19.834Z,1015.83
2022-11-10T05:18:19.817Z,1015.87
2022-11-10T05:19:19.812Z,1015.84
2022-11-10T05:20:19.824Z,1015.86
2022-11-10T05:21:19.783Z,1015.90
2022-11-10T05:22:19.777Z,1015.84
2022-11-10T05:23:19.953Z,1015.90
2022-11-10T05:24:19.749Z,1015.84
2022-11-10T05:25:19.751Z,1015.86
2022-11-10T05:26:19.743Z,1015.87
2022-11-10T05:27:19.729Z,1015.85
2022-11-10T05:28:19.714Z,1015.89
2022-11-10T05:29:19.700Z,1015.90
2022-11-10T05:30:19.702Z,1015.94
2022-11-10T05:31:19.693Z,1015.98
2022-11-10T05:32:19.658Z,1015.92
2022-11-10T05:33:20.115Z,1015.98
2022-11-10T05:34:19.735Z,1015.98
2022-11-10T05:35:19.647Z,1016.04
2022-11-10T05:36:19.619Z,1016.04
2022-11-10T05:37:19.598Z,1016.08
2022-11-10T05:38:19.611Z,1016.10
2022-11-10T05:39:19.588Z,1016.13
2022-11-10T05:40:19.588Z,1016.13
2022-11-10T05:41:19.557Z,1016.11
2022-11-10T05:42:19.589Z,1016.15
2022-11-10T05:43:19.621Z,1016.12
2022-11-10T05:44:19.522Z,1016.12
2022-11-10T05:45:19.523Z,1016.15
2022-11-10T05:46:19.509Z,1016.11
2022-11-10T05:47:19.507Z,1016.14
2022-11-10T05:48:19.480Z,1016.17
2022-11-10T05:49:19.474Z,1016.18
2022-11-10T05:50:19.476Z,1016.20
2022-11-10T05:51:19.446Z,1016.19
2022-11-10T05:52:19.433Z,1016.17
2022-11-10T05:53:19.863Z,1016.16
2022-11-10T05:54:19.410Z,1016.15
2022-11-10T05:55:19.437Z,1016.20
2022-11-10T05:56:19.390Z,1016.15
2022-11-10T05:57:19.374Z,1016.20
2022-11-10T05:58:19.364Z,1016.23
2022-11-10T05:59:19.362Z,1016.21
2022-11-10T06:00:19.359Z,1016.20
2022-11-10T06:01:19.336Z,1016.27
2022-11-10T06:02:19.330Z,1016.27
2022-11-10T06:03:19.694Z,1016.31
2022-11-10T06:04:19.300Z,1016.29
2022-11-10T06:05:19.287Z,1016.32
2022-11-10T06:06:19.294Z,1016.40
2022-11-10T06:07:19.262Z,1016.43
2022-11-10T06:08:19.257Z,1016.39
2022-11-10T06:09:19.249Z,1016.48
2022-11-10T06:10:19.235Z,1016.47
2022-11-10T06:11:19.243Z,1016.47
2022-11-10T06:12:19.213Z,1016.48
2022-11-10T06:13:19.467Z,1016.47
2022-11-10T06:14:19.215Z,1016.50
2022-11-10T06:15:19.196Z,1016.49
2022-11-10T06:16:19.172Z,1016.54
2022-11-10T06:17:19.221Z,1016.55
2022-11-10T06:18:19.178Z,1016.59
2022-11-10T06:19:19.153Z,1016.61
2022-11-10T06:20:19.151Z,1016.63
2022-11-10T06:21:19.124Z,1016.59
2022-11-10T06:22:19.096Z,1016.63
2022-11-10T06:23:19.229Z,1016.71
2022-11-10T06:24:19.069Z,1016.82
2022-11-10T06:25:19.087Z,1016.84
2022-11-10T06:26:19.064Z,1016.80
2022-11-10T06:27:19.042Z,1016.79
2022-11-10T06:28:19.055Z,1016.78
2022-11-10T06:29:24.115Z,1016.83
2022-11-10T06:30:20.003Z,1016.85
2022-11-10T06:31:19.028Z,1016.88
2022-11-10T06:32:19.520Z,1016.87
2022-11-10T06:33:19.209Z,1016.84
2022-11-10T06:34:18.963Z,1016.89
2022-11-10T06:35:18.976Z,1016.91
2022-11-10T06:36:18.973Z,1016.96
2022-11-10T06:37:18.939Z,1016.96
2022-11-10T06:38:18.917Z,1016.98
2022-11-10T06:39:18.914Z,1016.98
2022-11-10T06:40:18.898Z,1016.98
2022-11-10T06:41:22.697Z,1017.01
2022-11-10T06:42:19.881Z,1017.03
2022-11-10T06:43:18.930Z,1017.02
2022-11-10T06:44:18.845Z,1017.06
2022-11-10T06:45:18.840Z,1017.07
2022-11-10T06:46:18.819Z,1017.04
2022-11-10T06:47:18.832Z,1017.05
2022-11-10T06:48:18.816Z,1017.08
2022-11-10T06:49:18.785Z,1017.08
2022-11-10T06:50:18.782Z,1017.07
2022-11-10T06:51:18.786Z,1017.10
2022-11-10T06:52:18.773Z,1017.09
2022-11-10T06:53:22.913Z,1017.15
2022-11-10T06:54:19.729Z,1017.17
2022-11-10T06:55:18.733Z,1017.19
2022-11-10T06:56:18.714Z,1017.20
2022-11-10T06:57:18.733Z,1017.18
2022-11-10T06:58:18.687Z,1017.19
2022-11-10T06:59:18.691Z,1017.22
2022-11-10T07:00:18.665Z,1017.22
2022-11-10T07:01:22.283Z,1017.25
2022-11-10T07:02:18.657Z,1017.25
2022-11-10T07:03:18.676Z,1017.24
2022-11-10T07:04:20.324Z,1017.27
2022-11-10T07:05:18.653Z,1017.27
2022-11-10T07:06:18.597Z,1017.33
2022-11-10T07:07:18.622Z,1017.36
2022-11-10T07:08:18.573Z,1017.36
2022-11-10T07:09:18.576Z,1017.40
2022-11-10T07:10:18.565Z,1017.44
2022-11-10T07:11:18.560Z,1017.46
2022-11-10T07:12:18.569Z,1017.48
2022-11-10T07:13:18.531Z,1017.47
2022-11-10T07:14:18.528Z,1017.48
2022-11-10T07:15:18.496Z,1017.48
2022-11-10T07:16:24.169Z,1017.52
2022-11-10T07:17:19.488Z,1017.50
2022-11-10T07:18:18.502Z,1017.54
2022-11-10T07:19:18.459Z,1017.55
2022-11-10T07:20:18.453Z,1017.51
2022-11-10T07:21:18.477Z,1017.51
2022-11-10T07:22:18.440Z,1017.53
2022-11-10T07:23:18.441Z,1017.55
2022-11-10T07:24:18.403Z,1017.58
2022-11-10T07:25:18.406Z,1017.64
2022-11-10T07:26:18.391Z,1017.66
2022-11-10T07:27:18.401Z,1017.67
2022-11-10T07:28:18.368Z,1017.71
2022-11-10T07:29:18.347Z,1017.71
2022-11-10T07:30:18.340Z,1017.74
2022-11-10T07:31:18.325Z,1017.80
2022-11-10T07:32:18.332Z,1017.80
2022-11-10T07:33:18.304Z,1017.81
2022-11-10T07:34:18.325Z,1017.82
2022-11-10T07:35:18.272Z,1017.85
2022-11-10T07:36:18.262Z,1017.89
2022-11-10T07:37:18.278Z,1017.94
2022-11-10T07:38:18.256Z,1017.94
2022-11-10T07:39:18.249Z,1017.93
2022-11-10T07:40:18.235Z,1017.95
2022-11-10T07:41:18.213Z,1017.97
2022-11-10T07:42:18.203Z,1017.99
2022-11-10T07:43:18.184Z,1018.01
2022-11-10T07:44:18.170Z,1018.00
2022-11-10T07:45:18.166Z,1018.01
2022-11-10T07:46:18.151Z,1018.06
2022-11-10T07:47:18.155Z,1018.10
2022-11-10T07:48:18.130Z,1018.09
2022-11-10T07:49:18.121Z,1018.10
2022-11-10T07:50:18.119Z,1018.12
2022-11-10T07:51:18.101Z,1018.15
2022-11-10T07:52:18.103Z,1018.14
2022-11-10T07:53:18.068Z,1018.16
2022-11-10T07:54:18.056Z,1018.12
2022-11-10T07:55:18.070Z,1018.15
2022-11-10T07:56:18.033Z,1018.13
2022-11-10T07:57:18.056Z,1018.14
2022-11-10T07:58:18.044Z,1018.12
2022-11-10T07:59:18.009Z,1018.15
2022-11-10T08:00:17.997Z,1018.15
2022-11-10T08:01:18.043Z,1018.16
2022-11-10T08:02:17.982Z,1018.18
2022-11-10T08:03:17.966Z,1018.23
2022-11-10T08:04:17.944Z,1018.20
2022-11-10T08:05:17.984Z,1018.24
2022-11-10T08:06:17.977Z,1018.26
2022-11-10T08:07:18.123Z,1018.26
2022-11-10T08:08:17.910Z,1018.29
2022-11-10T08:09:17.896Z,1018.30
2022-11-10T08:10:17.895Z,1018.35
2022-11-10T08:11:17.891Z,1018.35
2022-11-10T08:12:17.874Z,1018.37
2022-11-10T08:13:17.847Z,1018.38
2022-11-10T08:14:17.833Z,1018.42
2022-11-10T08:15:17.833Z,1018.41
2022-11-10T08:16:17.827Z,1018.42
2022-11-10T08:17:17.831Z,1018.48
2022-11-10T08:18:17.797Z,1018.45
2022-11-10T08:19:17.784Z,1018.45
2022-11-10T08:20:17.766Z,1018.47
2022-11-10T08:21:17.761Z,1018.46
2022-11-10T08:22:17.763Z,1018.53
2022-11-10T08:23:17.738Z,1018.54
2022-11-10T08:24:17.719Z,1018.56
2022-11-10T08:25:17.707Z,1018.56
2022-11-10T08:26:17.698Z,1018.55
2022-11-10T08:27:17.739Z,1018.54
2022-11-10T08:28:17.690Z,1018.61
2022-11-10T08:29:17.663Z,1018.63
2022-11-10T08:30:17.667Z,1018.66
2022-11-10T08:31:17.645Z,1018.68
2022-11-10T08:32:17.658Z,1018.66
2022-11-10T08:33:17.628Z,1018.66
2022-11-10T08:34:17.608Z,1018.66
2022-11-10T08:35:17.596Z,1018.69
2022-11-10T08:36:17.606Z,1018.69
2022-11-10T08:37:17.580Z,1018.72
2022-11-10T08:38:17.580Z,1018.73
2022-11-10T08:39:36.273Z,1018.67
2022-11-10T08:40:18.546Z,1018.69
2022-11-10T08:41:17.529Z,1018.71
2022-11-10T08:42:17.522Z,1018.71
2022-11-10T08:43:17.542Z,1018.69
2022-11-10T08:44:20.678Z,1018.67
2022-11-10T08:45:17.482Z,1018.70
2022-11-10T08:46:17.474Z,1018.69
2022-11-10T08:47:17.459Z,1018.73
2022-11-10T08:48:17.471Z,1018.73
2022-11-10T08:49:17.443Z,1018.74
2022-11-10T08:50:17.441Z,1018.83
2022-11-10T08:51:17.561Z,1018.82
2022-11-10T08:52:17.487Z,1018.85
2022-11-10T08:53:17.410Z,1018.89
2022-11-10T08:54:17.438Z,1018.92
2022-11-10T08:55:17.383Z,1018.95
2022-11-10T08:56:17.369Z,1018.99
2022-11-10T08:57:17.401Z,1019.03
2022-11-10T08:58:17.361Z,1019.04
2022-11-10T08:59:17.347Z,1019.00
2022-11-10T09:00:17.310Z,1019.00
2022-11-10T09:01:17.303Z,1018.99
2022-11-10T09:02:17.293Z,1018.98
2022-11-10T09:03:17.293Z,1019.02
2022-11-10T09:04:17.304Z,1019.01
2022-11-10T09:05:17.253Z,1019.02
2022-11-10T09:06:17.250Z,1019.03
2022-11-10T09:07:17.286Z,1018.99
2022-11-10T09:08:17.251Z,1019.04
2022-11-10T09:09:17.211Z,1019.08
2022-11-10T09:10:17.218Z,1019.13
2022-11-10T09:11:17.198Z,1019.20
2022-11-10T09:12:17.175Z,1019.16
2022-11-10T09:13:17.232Z,1019.21
2022-11-10T09:14:17.158Z,1019.17
2022-11-10T09:15:17.188Z,1019.16
2022-11-10T09:16:17.139Z,1019.21
2022-11-10T09:17:17.128Z,1019.12
2022-11-10T09:18:17.130Z,1019.20
2022-11-10T09:19:20.070Z,1019.18
2022-11-10T09:20:17.098Z,1019.27
2022-11-10T09:21:17.096Z,1019.33
2022-11-10T09:22:17.071Z,1019.28
2022-11-10T09:23:17.079Z,1019.29
2022-11-10T09:24:17.043Z,1019.33
2022-11-10T09:25:17.041Z,1019.27
2022-11-10T09:26:17.023Z,1019.28
2022-11-10T09:27:17.028Z,1019.31
2022-11-10T09:28:17.029Z,1019.23
2022-11-10T09:29:17.028Z,1019.28
2022-11-10T09:30:18.100Z,1019.16
2022-11-10T09:31:16.983Z,1019.22
2022-11-10T09:32:16.966Z,1019.24
2022-11-10T09:33:16.962Z,1019.23
2022-11-10T09:34:16.939Z,1019.28
2022-11-10T09:35:16.946Z,1019.21
2022-11-10T09:36:16.922Z,1019.29
2022-11-10T09:37:16.902Z,1019.26
2022-11-10T09:38:16.899Z,1019.35
2022-11-10T09:39:16.892Z,1019.36
2022-11-10T09:40:16.874Z,1019.26
2022-11-10T09:41:16.855Z,1019.25
2022-11-10T09:42:16.838Z,1019.26
2022-11-10T09:43:16.852Z,1019.29
2022-11-10T09:44:16.819Z,1019.32
2022-11-10T09:45:16.807Z,1019.40
2022-11-10T09:46:16.797Z,1019.48
2022-11-10T09:47:42.471Z,1019.38
2022-11-10T09:48:17.797Z,1019.39
2022-11-10T09:49:16.767Z,1019.39
2022-11-10T09:50:16.761Z,1019.38
2022-11-10T09:51:16.748Z,1019.30
2022-11-10T09:52:16.725Z,1019.30
2022-11-10T09:53:16.749Z,1019.31
2022-11-10T09:54:16.724Z,1019.29
2022-11-10T09:55:16.701Z,1019.43
2022-11-10T09:56:16.692Z,1019.30
2022-11-10T09:57:16.670Z,1019.30
2022-11-10T09:58:16.681Z,1019.30
2022-11-10T09:59:16.647Z,1019.34
2022-11-10T10:00:16.640Z,1019.34
2022-11-10T10:01:16.812Z,1019.41
2022-11-10T10:02:16.622Z,1019.34
2022-11-10T10:03:16.663Z,1019.41
2022-11-10T10:04:16.600Z,1019.49
2022-11-10T10:05:16.652Z,1019.44
2022-11-10T10:06:16.579Z,1019.51
2022-11-10T10:07:16.671Z,1019.46
2022-11-10T10:08:16.564Z,1019.46
2022-11-10T10:09:16.557Z,1019.50
2022-11-10T10:10:17.715Z,1019.49
2022-11-10T10:11:16.537Z,1019.47
2022-11-10T10:12:16.517Z,1019.52
2022-11-10T10:13:16.498Z,1019.44
2022-11-10T10:14:16.504Z,1019.49
2022-11-10T10:15:16.476Z,1019.51
2022-11-10T10:16:16.488Z,1019.46
2022-11-10T10:17:16.462Z,1019.49
2022-11-10T10:18:16.436Z,1019.49
2022-11-10T10:19:16.555Z,1019.50
2022-11-10T10:20:16.410Z,1019.43
2022-11-10T10:21:16.399Z,1019.47
2022-11-10T10:22:16.397Z,1019.46
2022-11-10T10:23:16.378Z,1019.50
2022-11-10T10:24:21.414Z,1019.52
2022-11-10T10:25:17.364Z,1019.50
2022-11-10T10:26:16.355Z,1019.53
2022-11-10T10:27:16.335Z,1019.49
2022-11-10T10:28:16.320Z,1019.53
2022-11-10T10:29:16.322Z,1019.51
2022-11-10T10:30:16.304Z,1019.54
2022-11-10T10:31:16.351Z,1019.52
2022-11-10T10:32:16.291Z,1019.46
2022-11-10T10:33:16.281Z,1019.50
2022-11-10T10:34:16.280Z,1019.55
2022-11-10T10:35:16.268Z,1019.62
2022-11-10T10:36:16.242Z,1019.54
2022-11-10T10:37:16.256Z,1019.50
2022-11-10T10:38:16.212Z,1019.55
2022-11-10T10:39:16.215Z,1019.63
2022-11-10T10:40:16.199Z,1019.65
2022-11-10T10:41:20.974Z,1019.62
2022-11-10T10:42:17.169Z,1019.58
2022-11-10T10:43:16.164Z,1019.58
2022-11-10T10:44:16.162Z,1019.62
2022-11-10T10:45:16.178Z,1019.65
2022-11-10T10:46:16.127Z,1019.67
2022-11-10T10:47:16.134Z,1019.74
2022-11-10T10:48:16.097Z,1019.72
2022-11-10T10:49:31.702Z,1019.67
2022-11-10T10:50:17.081Z,1019.72
2022-11-10T10:51:16.102Z,1019.74
2022-11-10T10:52:16.060Z,1019.70
2022-11-10T10:53:16.042Z,1019.66
2022-11-10T10:54:16.134Z,1019.63
2022-11-10T10:55:16.024Z,1019.60
2022-11-10T10:56:16.042Z,1019.62
2022-11-10T10:57:16.001Z,1019.63
2022-11-10T10:58:16.003Z,1019.55
2022-11-10T10:59:15.987Z,1019.60
2022-11-10T11:00:15.976Z,1019.58
2022-11-10T11:01:16.119Z,1019.54
2022-11-10T11:02:15.946Z,1019.41
2022-11-10T11:03:15.940Z,1019.51
2022-11-10T11:04:15.936Z,1019.45
2022-11-10T11:05:15.906Z,1019.42
2022-11-10T11:06:15.903Z,1019.41
2022-11-10T11:07:15.982Z,1019.41
2022-11-10T11:08:15.876Z,1019.41
2022-11-10T11:09:15.888Z,1019.40
2022-11-10T11:10:15.885Z,1019.46
2022-11-10T11:11:15.840Z,1019.47
2022-11-10T11:12:15.836Z,1019.54
2022-11-10T11:13:15.824Z,1019.49
2022-11-10T11:14:15.822Z,1019.40
2022-11-10T11:15:15.803Z,1019.51
2022-11-10T11:16:15.794Z,1019.52
2022-11-10T11:17:15.823Z,1019.55
2022-11-10T11:18:15.773Z,1019.54
2022-11-10T11:19:15.779Z,1019.57
2022-11-10T11:20:15.846Z,1019.56
2022-11-10T11:21:15.738Z,1019.69
2022-11-10T11:22:15.727Z,1019.60
2022-11-10T11:23:15.736Z,1019.61
2022-11-10T11:24:15.726Z,1019.68
2022-11-10T11:25:15.685Z,1019.63
2022-11-10T11:26:15.688Z,1019.70
2022-11-10T11:27:15.689Z,1019.61
2022-11-10T11:28:15.668Z,1019.68
2022-11-10T11:29:15.653Z,1019.81
2022-11-10T11:30:15.749Z,1019.89
2022-11-10T11:31:15.676Z,1019.86
2022-11-10T11:32:15.626Z,1019.84
2022-11-10T11:33:15.605Z,1019.87
2022-11-10T11:34:15.606Z,1019.85
2022-11-10T11:35:15.582Z,1019.89
2022-11-10T11:36:15.570Z,1019.93
2022-11-10T11:37:19.411Z,1019.91
2022-11-10T11:38:15.540Z,1019.96
2022-11-10T11:39:15.565Z,1019.94
2022-11-10T11:40:15.608Z,1019.99
2022-11-10T11:41:15.504Z,1020.00
2022-11-10T11:42:15.506Z,1020.00
2022-11-10T11:43:15.496Z,1020.10
2022-11-10T11:44:15.495Z,1020.02
2022-11-10T11:45:15.466Z,1020.04
2022-11-10T11:46:15.464Z,1020.10
2022-11-10T11:47:15.444Z,1020.12
2022-11-10T11:48:15.458Z,1020.04
2022-11-10T11:49:15.437Z,1020.04
2022-11-10T11:50:15.485Z,1020.15
2022-11-10T11:51:15.396Z,1020.08
2022-11-10T11:52:15.395Z,1020.09
2022-11-10T11:53:15.369Z,1020.00
2022-11-10T11:54:15.373Z,1020.07
2022-11-10T11:55:15.376Z,1020.11
2022-11-10T11:56:15.345Z,1020.11
2022-11-10T11:57:15.326Z,1020.19
2022-11-10T11:58:15.323Z,1020.25
2022-11-10T11:59:15.326Z,1020.26
2022-11-10T12:00:15.310Z,1020.23
2022-11-10T12:01:15.311Z,1020.21
2022-11-10T12:02:15.342Z,1020.25
2022-11-10T12:03:15.271Z,1020.29
2022-11-10T12:04:15.266Z,1020.32
2022-11-10T12:05:15.245Z,1020.23